createdAt,value
2022-08-23T00:00:21.000Z,289.4
2022-08-23T00:01:49.000Z,289.4
2022-08-23T00:03:57.000Z,289.4
2022-08-23T00:05:23.000Z,289.4
2022-08-23T00:07:29.000Z,289.4
2022-08-23T00:09:02.000Z,289.52
2022-08-23T00:11:08.000Z,289.34
2022-08-23T00:12:34.000Z,289.27
2022-08-23T00:14:41.000Z,289.15
2022-08-23T00:16:09.000Z,289.21
2022-08-23T00:18:15.000Z,289.21
2022-08-23T00:19:42.000Z,289.27
2022-08-23T00:21:48.000Z,289.34
2022-08-23T00:23:15.000Z,289.27
2022-08-23T00:25:21.000Z,289.27
2022-08-23T00:28:12.000Z,289.4
2022-08-23T00:29:39.000Z,289.4
2022-08-23T00:31:45.000Z,289.4
2022-08-23T00:33:12.000Z,289.4
2022-08-23T00:35:18.000Z,289.34
2022-08-23T00:36:51.000Z,289.34
2022-08-23T00:38:57.000Z,289.27
2022-08-23T00:40:23.000Z,289.27
2022-08-23T00:42:29.000Z,289.27
2022-08-23T00:43:56.000Z,289.27
2022-08-23T00:46:02.000Z,289.21
2022-08-23T00:47:29.000Z,289.21
2022-08-23T00:49:35.000Z,289.21
2022-08-23T00:51:01.000Z,289.15
2022-08-23T00:53:07.000Z,289.15
2022-08-23T00:54:34.000Z,289.15
2022-08-23T00:56:40.000Z,289.15
2022-08-23T00:58:07.000Z,289.15
2022-08-23T01:00:13.000Z,289.09
2022-08-23T01:01:39.000Z,289.02
2022-08-23T01:03:45.000Z,289.02
2022-08-23T01:06:46.000Z,288.96
2022-08-23T01:08:12.000Z,289.02
2022-08-23T01:10:18.000Z,288.9
2022-08-23T01:11:45.000Z,288.96
2022-08-23T01:13:51.000Z,288.9
2022-08-23T01:15:18.000Z,288.84
2022-08-23T01:17:24.000Z,288.65
2022-08-23T01:18:50.000Z,288.71
2022-08-23T01:20:57.000Z,288.71
2022-08-23T01:22:24.000Z,288.65
2022-08-23T01:24:30.000Z,288.71
2022-08-23T01:26:33.000Z,288.71
2022-08-23T01:28:39.000Z,288.71
2022-08-23T01:30:10.000Z,288.65
2022-08-23T01:32:16.000Z,288.52
2022-08-23T01:33:42.000Z,288.52
2022-08-23T01:35:49.000Z,288.59
2022-08-23T01:37:15.000Z,288.65
2022-08-23T01:39:21.000Z,288.71
2022-08-23T01:40:48.000Z,288.65
2022-08-23T01:42:54.000Z,288.59
2022-08-23T01:45:45.000Z,288.52
2022-08-23T01:47:12.000Z,288.46
2022-08-23T01:49:18.000Z,288.4
2022-08-23T01:50:44.000Z,288.4
2022-08-23T01:52:51.000Z,288.46
2022-08-23T01:54:17.000Z,288.34
2022-08-23T01:56:23.000Z,288.21
2022-08-23T01:58:03.000Z,288.15
2022-08-23T02:00:09.000Z,288.02
2022-08-23T02:01:38.000Z,287.96
2022-08-23T02:03:44.000Z,287.9
2022-08-23T02:05:13.000Z,287.9
2022-08-23T02:07:23.000Z,287.9
2022-08-23T02:08:49.000Z,287.77
2022-08-23T02:10:56.000Z,287.84
2022-08-23T02:12:23.000Z,287.84
2022-08-23T02:14:29.000Z,287.71
2022-08-23T02:15:55.000Z,287.65
2022-08-23T02:18:02.000Z,287.59
2022-08-23T02:19:28.000Z,287.59
2022-08-23T02:21:34.000Z,287.59
2022-08-23T02:24:25.000Z,287.71
2022-08-23T02:25:52.000Z,287.65
2022-08-23T02:27:58.000Z,287.52
2022-08-23T02:29:25.000Z,287.46
2022-08-23T02:31:31.000Z,287.34
2022-08-23T02:32:57.000Z,287.34
2022-08-23T02:35:04.000Z,287.4
2022-08-23T02:36:31.000Z,287.34
2022-08-23T02:38:37.000Z,287.4
2022-08-23T02:40:04.000Z,287.52
2022-08-23T02:42:10.000Z,287.52
2022-08-23T02:43:37.000Z,287.52
2022-08-23T02:45:45.000Z,287.4
2022-08-23T02:47:11.000Z,287.46
2022-08-23T02:49:18.000Z,287.27
2022-08-23T02:50:44.000Z,287.34
2022-08-23T02:52:51.000Z,287.27
2022-08-23T02:54:17.000Z,287.27
2022-08-23T02:56:23.000Z,287.15
2022-08-23T02:57:50.000Z,287.15
2022-08-23T02:59:56.000Z,287.02
2022-08-23T03:02:48.000Z,287.09
2022-08-23T03:04:15.000Z,287.02
2022-08-23T03:06:21.000Z,287.02
2022-08-23T03:07:50.000Z,286.96
2022-08-23T03:09:56.000Z,286.96
2022-08-23T03:11:23.000Z,286.96
2022-08-23T03:13:29.000Z,286.9
2022-08-23T03:14:55.000Z,286.96
2022-08-23T03:17:02.000Z,287.02
2022-08-23T03:18:28.000Z,286.96
2022-08-23T03:20:35.000Z,286.96
2022-08-23T03:22:01.000Z,286.96
2022-08-23T03:24:07.000Z,286.96
2022-08-23T03:25:35.000Z,287.09
2022-08-23T03:27:41.000Z,287.21
2022-08-23T03:29:09.000Z,287.27
2022-08-23T03:31:15.000Z,287.27
2022-08-23T03:32:42.000Z,287.21
2022-08-23T03:34:53.000Z,287.27
2022-08-23T03:36:19.000Z,287.27
2022-08-23T03:38:32.000Z,287.27
2022-08-23T03:41:23.000Z,287.21
2022-08-23T03:42:49.000Z,287.21
2022-08-23T03:44:56.000Z,287.27
2022-08-23T03:46:27.000Z,287.27
2022-08-23T03:48:37.000Z,287.34
2022-08-23T03:50:04.000Z,287.34
2022-08-23T03:52:10.000Z,287.4
2022-08-23T03:53:37.000Z,287.4
2022-08-23T03:55:43.000Z,287.34
2022-08-23T03:57:09.000Z,287.4
2022-08-23T03:59:15.000Z,287.52
2022-08-23T04:00:42.000Z,287.46
2022-08-23T04:02:48.000Z,287.27
2022-08-23T04:04:14.000Z,287.21
2022-08-23T04:06:21.000Z,287.15
2022-08-23T04:07:47.000Z,287.15
2022-08-23T04:09:53.000Z,287.15
2022-08-23T04:11:20.000Z,287.15
2022-08-23T04:13:26.000Z,287.15
2022-08-23T04:14:52.000Z,287.15
2022-08-23T04:16:59.000Z,287.15
2022-08-23T04:19:50.000Z,286.96
2022-08-23T04:21:16.000Z,286.96
2022-08-23T04:23:23.000Z,286.84
2022-08-23T04:24:49.000Z,286.77
2022-08-23T04:26:55.000Z,286.77
2022-08-23T04:28:22.000Z,286.71
2022-08-23T04:30:28.000Z,286.71
2022-08-23T04:31:54.000Z,286.77
2022-08-23T04:34:01.000Z,286.84
2022-08-23T04:35:29.000Z,286.84
2022-08-23T04:37:35.000Z,286.84
2022-08-23T04:39:01.000Z,286.84
2022-08-23T04:41:07.000Z,286.77
2022-08-23T04:42:36.000Z,286.77
2022-08-23T04:44:42.000Z,286.77
2022-08-23T04:46:08.000Z,286.71
2022-08-23T04:48:14.000Z,286.71
2022-08-23T04:49:41.000Z,286.71
2022-08-23T04:51:47.000Z,286.77
2022-08-23T04:53:18.000Z,286.65
2022-08-23T04:55:24.000Z,286.71
2022-08-23T04:58:15.000Z,286.77
2022-08-23T04:59:42.000Z,286.9
2022-08-23T05:01:48.000Z,286.9
2022-08-23T05:03:15.000Z,286.9
2022-08-23T05:05:21.000Z,286.9
2022-08-23T05:06:47.000Z,286.9
2022-08-23T05:08:53.000Z,286.84
2022-08-23T05:10:20.000Z,286.84
2022-08-23T05:12:26.000Z,286.9
2022-08-23T05:13:52.000Z,286.9
2022-08-23T05:15:58.000Z,287.21
2022-08-23T05:17:25.000Z,287.15
2022-08-23T05:19:31.000Z,287.09
2022-08-23T05:20:58.000Z,287.02
2022-08-23T05:23:05.000Z,287.02
2022-08-23T05:24:31.000Z,287.09
2022-08-23T05:26:37.000Z,287.02
2022-08-23T05:28:04.000Z,287.02
2022-08-23T05:30:10.000Z,287.15
2022-08-23T05:31:39.000Z,287.15
2022-08-23T05:33:46.000Z,287.15
2022-08-23T05:36:37.000Z,287.27
2022-08-23T05:38:19.000Z,287.27
2022-08-23T05:40:25.000Z,287.34
2022-08-23T05:41:52.000Z,287.4
2022-08-23T05:43:58.000Z,287.4
2022-08-23T05:45:27.000Z,287.4
2022-08-23T05:47:33.000Z,287.34
2022-08-23T05:48:59.000Z,287.27
2022-08-23T05:51:05.000Z,287.27
2022-08-23T05:52:32.000Z,287.27
2022-08-23T05:54:38.000Z,287.27
2022-08-23T05:56:05.000Z,287.27
2022-08-23T05:58:11.000Z,287.34
2022-08-23T05:59:37.000Z,287.34
2022-08-23T06:01:44.000Z,287.27
2022-08-23T06:03:14.000Z,287.27
2022-08-23T06:05:20.000Z,287.27
2022-08-23T06:06:47.000Z,287.34
2022-08-23T06:08:53.000Z,287.46
2022-08-23T06:10:19.000Z,287.59
2022-08-23T06:12:25.000Z,287.65
2022-08-23T06:15:17.000Z,287.84
2022-08-23T06:16:43.000Z,287.96
2022-08-23T06:18:49.000Z,288.09
2022-08-23T06:20:16.000Z,288.15
2022-08-23T06:22:22.000Z,288.21
2022-08-23T06:23:48.000Z,288.27
2022-08-23T06:25:55.000Z,288.46
2022-08-23T06:27:21.000Z,288.52
2022-08-23T06:29:27.000Z,288.59
2022-08-23T06:30:54.000Z,288.65
2022-08-23T06:33:00.000Z,288.77
2022-08-23T06:34:26.000Z,288.84
2022-08-23T06:36:32.000Z,288.9
2022-08-23T06:37:59.000Z,289.02
2022-08-23T06:40:05.000Z,289.09
2022-08-23T06:41:32.000Z,289.21
2022-08-23T06:43:38.000Z,289.34
2022-08-23T06:45:05.000Z,289.46
2022-08-23T06:47:11.000Z,289.59
2022-08-23T06:48:37.000Z,289.65
2022-08-23T06:50:43.000Z,289.71
2022-08-23T06:53:37.000Z,289.9
2022-08-23T06:55:03.000Z,290.02
2022-08-23T06:57:09.000Z,290.15
2022-08-23T06:58:36.000Z,290.21
2022-08-23T07:00:42.000Z,290.27
2022-08-23T07:02:08.000Z,290.34
2022-08-23T07:04:15.000Z,290.46
2022-08-23T07:05:41.000Z,290.59
2022-08-23T07:07:47.000Z,290.65
2022-08-23T07:09:14.000Z,290.77
2022-08-23T07:11:20.000Z,290.84
2022-08-23T07:12:47.000Z,291.02
2022-08-23T07:14:53.000Z,291.09
2022-08-23T07:16:19.000Z,291.15
2022-08-23T07:18:25.000Z,291.21
2022-08-23T07:19:52.000Z,291.34
2022-08-23T07:21:58.000Z,291.52
2022-08-23T07:23:25.000Z,291.59
2022-08-23T07:25:31.000Z,291.65
2022-08-23T07:26:58.000Z,291.77
2022-08-23T07:29:04.000Z,291.9
2022-08-23T07:31:55.000Z,291.96
2022-08-23T07:33:21.000Z,292.09
2022-08-23T07:35:28.000Z,292.09
2022-08-23T07:36:54.000Z,292.09
2022-08-23T07:39:00.000Z,292.21
2022-08-23T07:40:27.000Z,292.21
2022-08-23T07:42:33.000Z,292.34
2022-08-23T07:44:00.000Z,292.46
2022-08-23T07:46:06.000Z,292.52
2022-08-23T07:47:33.000Z,292.59
2022-08-23T07:49:39.000Z,292.77
2022-08-23T07:51:06.000Z,292.84
2022-08-23T07:53:12.000Z,293.02
2022-08-23T07:54:56.000Z,293.09
2022-08-23T07:57:02.000Z,293.15
2022-08-23T07:58:29.000Z,293.21
2022-08-23T08:00:35.000Z,293.34
2022-08-23T08:02:02.000Z,293.46
2022-08-23T08:04:08.000Z,293.59
2022-08-23T08:05:35.000Z,293.71
2022-08-23T08:07:41.000Z,293.77
2022-08-23T08:10:32.000Z,293.9
2022-08-23T08:11:59.000Z,293.9
2022-08-23T08:14:05.000Z,293.96
2022-08-23T08:15:31.000Z,294.09
2022-08-23T08:17:37.000Z,294.21
2022-08-23T08:19:04.000Z,294.34
2022-08-23T08:21:12.000Z,294.4
2022-08-23T08:22:38.000Z,294.46
2022-08-23T08:24:50.000Z,294.65
2022-08-23T08:26:17.000Z,294.71
2022-08-23T08:28:24.000Z,294.77
2022-08-23T08:29:50.000Z,294.84
2022-08-23T08:31:57.000Z,294.96
2022-08-23T08:33:23.000Z,294.96
2022-08-23T08:35:35.000Z,294.96
2022-08-23T08:37:01.000Z,295.21
2022-08-23T08:39:08.000Z,295.27
2022-08-23T08:40:35.000Z,295.4
2022-08-23T08:42:41.000Z,295.46
2022-08-23T08:44:07.000Z,295.65
2022-08-23T08:46:17.000Z,295.71
2022-08-23T08:49:09.000Z,295.84
2022-08-23T08:50:35.000Z,295.96
2022-08-23T08:52:41.000Z,295.96
2022-08-23T08:54:08.000Z,296.02
2022-08-23T08:56:14.000Z,296.15
2022-08-23T08:57:42.000Z,296.27
2022-08-23T08:59:48.000Z,296.27
2022-08-23T09:01:14.000Z,296.34
2022-08-23T09:03:21.000Z,296.46
2022-08-23T09:04:47.000Z,296.52
2022-08-23T09:06:54.000Z,296.59
2022-08-23T09:08:20.000Z,296.59
2022-08-23T09:10:26.000Z,296.71
2022-08-23T09:11:53.000Z,296.77
2022-08-23T09:13:59.000Z,296.84
2022-08-23T09:15:25.000Z,296.9
2022-08-23T09:17:32.000Z,296.96
2022-08-23T09:18:58.000Z,297.15
2022-08-23T09:21:04.000Z,297.15
2022-08-23T09:22:31.000Z,297.21
2022-08-23T09:24:37.000Z,297.27
2022-08-23T09:27:28.000Z,297.52
2022-08-23T09:28:57.000Z,297.59
2022-08-23T09:31:03.000Z,297.65
2022-08-23T09:32:32.000Z,297.65
2022-08-23T09:34:39.000Z,297.77
2022-08-23T09:36:05.000Z,297.77
2022-08-23T09:38:12.000Z,297.9
2022-08-23T09:39:39.000Z,297.9
2022-08-23T09:41:45.000Z,297.96
2022-08-23T09:43:11.000Z,297.9
2022-08-23T09:45:18.000Z,298.09
2022-08-23T09:46:44.000Z,298.09
2022-08-23T09:48:50.000Z,298.15
2022-08-23T09:50:19.000Z,298.15
2022-08-23T09:52:25.000Z,298.27
2022-08-23T09:53:51.000Z,298.34
2022-08-23T09:55:58.000Z,298.34
2022-08-23T09:57:24.000Z,298.4
2022-08-23T09:59:32.000Z,298.52
2022-08-23T10:00:58.000Z,298.4
2022-08-23T10:03:04.000Z,298.52
2022-08-23T10:05:55.000Z,298.65
2022-08-23T10:07:22.000Z,298.71
2022-08-23T10:09:28.000Z,298.84
2022-08-23T10:10:54.000Z,298.96
2022-08-23T10:13:01.000Z,299.02
2022-08-23T10:14:28.000Z,299.09
2022-08-23T10:16:35.000Z,299.15
2022-08-23T10:18:01.000Z,299.21
2022-08-23T10:20:08.000Z,299.21
2022-08-23T10:21:34.000Z,299.15
2022-08-23T10:23:41.000Z,299.21
2022-08-23T10:25:08.000Z,299.21
2022-08-23T10:27:14.000Z,299.34
2022-08-23T10:28:41.000Z,299.4
2022-08-23T10:30:47.000Z,299.52
2022-08-23T10:32:14.000Z,299.59
2022-08-23T10:34:20.000Z,299.71
2022-08-23T10:35:46.000Z,299.71
2022-08-23T10:37:53.000Z,299.71
2022-08-23T10:39:19.000Z,299.71
2022-08-23T10:41:26.000Z,299.71
2022-08-23T10:44:17.000Z,299.9
2022-08-23T10:45:44.000Z,299.77
2022-08-23T10:47:50.000Z,299.9
2022-08-23T10:49:16.000Z,299.96
2022-08-23T10:51:23.000Z,300.09
2022-08-23T10:52:56.000Z,300.15
2022-08-23T10:55:02.000Z,300.09
2022-08-23T10:56:29.000Z,300.15
2022-08-23T10:58:35.000Z,300.27
2022-08-23T11:00:02.000Z,300.27
2022-08-23T11:02:08.000Z,300.34
2022-08-23T11:03:34.000Z,300.4
2022-08-23T11:05:41.000Z,300.52
2022-08-23T11:07:07.000Z,300.59
2022-08-23T11:09:14.000Z,300.52
2022-08-23T11:10:41.000Z,300.65
2022-08-23T11:13:00.000Z,300.59
2022-08-23T11:14:27.000Z,300.71
2022-08-23T11:16:33.000Z,300.9
2022-08-23T11:17:59.000Z,300.9
2022-08-23T11:20:06.000Z,300.9
2022-08-23T11:22:57.000Z,300.96
2022-08-23T11:24:24.000Z,300.96
2022-08-23T11:26:30.000Z,301.09
2022-08-23T11:27:57.000Z,301.02
2022-08-23T11:30:03.000Z,301.02
2022-08-23T11:31:29.000Z,301.09
2022-08-23T11:33:36.000Z,301.27
2022-08-23T11:35:02.000Z,301.27
2022-08-23T11:37:08.000Z,301.15
2022-08-23T11:38:35.000Z,301.27
2022-08-23T11:40:41.000Z,301.52
2022-08-23T11:42:07.000Z,301.52
2022-08-23T11:44:14.000Z,301.34
2022-08-23T11:45:40.000Z,301.4
2022-08-23T11:47:46.000Z,301.52
2022-08-23T11:49:13.000Z,301.65
2022-08-23T11:51:19.000Z,301.84
2022-08-23T11:52:46.000Z,301.77
2022-08-23T11:54:52.000Z,301.96
2022-08-23T11:56:18.000Z,301.9
2022-08-23T11:58:24.000Z,301.65
2022-08-23T12:01:16.000Z,301.65
2022-08-23T12:02:42.000Z,301.96
2022-08-23T12:04:50.000Z,302.21
2022-08-23T12:06:16.000Z,302.34
2022-08-23T12:08:25.000Z,302.46
2022-08-23T12:09:51.000Z,302.34
2022-08-23T12:11:58.000Z,302.59
2022-08-23T12:13:25.000Z,302.34
2022-08-23T12:15:31.000Z,301.96
2022-08-23T12:17:01.000Z,301.96
2022-08-23T12:19:08.000Z,301.96
2022-08-23T12:20:38.000Z,302.15
2022-08-23T12:22:44.000Z,302.34
2022-08-23T12:24:10.000Z,302.46
2022-08-23T12:26:16.000Z,302.52
2022-08-23T12:27:43.000Z,302.59
2022-08-23T12:29:49.000Z,302.71
2022-08-23T12:31:16.000Z,302.71
2022-08-23T12:33:23.000Z,302.71
2022-08-23T12:34:49.000Z,302.84
2022-08-23T12:36:57.000Z,302.77
2022-08-23T12:39:48.000Z,302.65
2022-08-23T12:41:14.000Z,302.52
2022-08-23T12:43:21.000Z,302.21
2022-08-23T12:44:47.000Z,301.84
2022-08-23T12:46:53.000Z,301.84
2022-08-23T12:48:20.000Z,301.71
2022-08-23T12:50:26.000Z,301.46
2022-08-23T12:51:57.000Z,301.4
2022-08-23T12:54:03.000Z,301.52
2022-08-23T12:55:30.000Z,301.84
2022-08-23T12:57:36.000Z,302.21
2022-08-23T12:59:03.000Z,302.27
2022-08-23T13:01:09.000Z,302.4
2022-08-23T13:02:35.000Z,302.46
2022-08-23T13:04:42.000Z,302.34
2022-08-23T13:06:09.000Z,302.27
2022-08-23T13:08:15.000Z,302.27
2022-08-23T13:09:42.000Z,302.46
2022-08-23T13:11:59.000Z,302.59
2022-08-23T13:13:25.000Z,302.52
2022-08-23T13:15:32.000Z,302.46
2022-08-23T13:18:24.000Z,301.77
2022-08-23T13:19:50.000Z,301.84
2022-08-23T13:21:56.000Z,301.84
2022-08-23T13:23:23.000Z,301.96
2022-08-23T13:25:29.000Z,301.77
2022-08-23T13:26:57.000Z,301.71
2022-08-23T13:29:03.000Z,301.71
2022-08-23T13:30:29.000Z,301.71
2022-08-23T13:32:36.000Z,301.77
2022-08-23T13:34:02.000Z,302.15
2022-08-23T13:36:10.000Z,302.46
2022-08-23T13:37:37.000Z,302.4
2022-08-23T13:39:44.000Z,302.4
2022-08-23T13:41:10.000Z,302.65
2022-08-23T13:43:16.000Z,302.46
2022-08-23T13:44:43.000Z,302.34
2022-08-23T13:46:49.000Z,302.27
2022-08-23T13:48:16.000Z,302.4
2022-08-23T13:50:22.000Z,302.59
2022-08-23T13:51:49.000Z,302.46
2022-08-23T13:53:55.000Z,302.15
2022-08-23T13:56:46.000Z,302.46
2022-08-23T13:58:12.000Z,302.52
2022-08-23T14:00:19.000Z,302.59
2022-08-23T14:01:47.000Z,302.59
2022-08-23T14:03:53.000Z,302.71
2022-08-23T14:05:20.000Z,302.65
2022-08-23T14:07:26.000Z,302.77
2022-08-23T14:08:52.000Z,302.9
2022-08-23T14:10:59.000Z,303.15
2022-08-23T14:12:25.000Z,303.21
2022-08-23T14:14:32.000Z,303.34
2022-08-23T14:18:34.000Z,303.21
2022-08-23T14:20:01.000Z,303.27
2022-08-23T14:22:47.000Z,303.34
2022-08-23T14:24:13.000Z,303.21
2022-08-23T14:26:20.000Z,303.15
2022-08-23T14:27:46.000Z,303.15
2022-08-23T14:29:52.000Z,303.21
2022-08-23T14:31:19.000Z,303.02
2022-08-23T14:33:25.000Z,303.02
2022-08-23T14:36:16.000Z,303.34
2022-08-23T14:37:45.000Z,303.21
2022-08-23T14:40:08.000Z,303.21
2022-08-23T14:41:35.000Z,303.21
2022-08-23T14:43:41.000Z,303.21
2022-08-23T14:45:08.000Z,303.15
2022-08-23T14:47:14.000Z,303.15
2022-08-23T14:48:40.000Z,303.09
2022-08-23T14:50:47.000Z,302.96
2022-08-23T14:52:13.000Z,302.46
2022-08-23T14:54:19.000Z,302.34
2022-08-23T14:55:46.000Z,302.52
2022-08-23T14:57:52.000Z,302.9
2022-08-23T14:59:19.000Z,302.96
2022-08-23T15:01:25.000Z,303.02
2022-08-23T15:02:52.000Z,303.15
2022-08-23T15:04:58.000Z,303.4
2022-08-23T15:06:25.000Z,303.52
2022-08-23T15:12:48.000Z,302.96
2022-08-23T15:16:09.000Z,303.46
2022-08-23T15:17:36.000Z,303.59
2022-08-23T15:19:42.000Z,303.52
2022-08-23T15:21:09.000Z,303.59
2022-08-23T15:23:15.000Z,303.59
2022-08-23T15:24:41.000Z,303.59
2022-08-23T15:26:47.000Z,304.02
2022-08-23T15:28:14.000Z,303.77
2022-08-23T15:30:20.000Z,303.02
2022-08-23T15:31:47.000Z,302.71
2022-08-23T15:33:53.000Z,303.02
2022-08-23T15:35:20.000Z,303.09
2022-08-23T15:37:26.000Z,302.96
2022-08-23T15:38:53.000Z,303.15
2022-08-23T15:40:59.000Z,303.34
2022-08-23T15:42:25.000Z,303.34
2022-08-23T15:44:31.000Z,303.02
2022-08-23T15:45:58.000Z,302.96
2022-08-23T15:48:04.000Z,303.27
2022-08-23T15:49:31.000Z,303.34
2022-08-23T15:51:40.000Z,303.59
2022-08-23T15:54:31.000Z,303.71
2022-08-23T15:55:58.000Z,303.59
2022-08-23T15:58:09.000Z,303.27
2022-08-23T15:59:36.000Z,303.34
2022-08-23T16:01:42.000Z,303.46
2022-08-23T16:03:09.000Z,303.71
2022-08-23T16:05:25.000Z,303.96
2022-08-23T16:06:51.000Z,303.9
2022-08-23T16:08:57.000Z,303.84
2022-08-23T16:10:24.000Z,303.84
2022-08-23T16:12:32.000Z,303.84
2022-08-23T16:13:58.000Z,303.4
2022-08-23T16:16:05.000Z,303.4
2022-08-23T16:17:31.000Z,303.4
2022-08-23T16:19:37.000Z,303.59
2022-08-23T16:21:05.000Z,303.71
2022-08-23T16:23:11.000Z,303.77
2022-08-23T16:24:37.000Z,303.9
2022-08-23T16:26:43.000Z,303.71
2022-08-23T16:28:10.000Z,303.59
2022-08-23T16:30:16.000Z,303.4
2022-08-23T16:33:07.000Z,303.15
2022-08-23T16:34:34.000Z,303.09
2022-08-23T16:36:40.000Z,302.96
2022-08-23T16:38:08.000Z,303.09
2022-08-23T16:40:14.000Z,303.27
2022-08-23T16:41:41.000Z,303.34
2022-08-23T16:43:47.000Z,303.27
2022-08-23T16:45:13.000Z,303.34
2022-08-23T16:47:19.000Z,303.21
2022-08-23T16:48:46.000Z,303.09
2022-08-23T16:50:52.000Z,302.96
2022-08-23T16:52:18.000Z,303.09
2022-08-23T16:54:38.000Z,302.84
2022-08-23T16:56:05.000Z,302.71
2022-08-23T16:58:11.000Z,302.65
2022-08-23T16:59:37.000Z,302.65
2022-08-23T17:01:44.000Z,302.46
2022-08-23T17:03:11.000Z,302.52
2022-08-23T17:05:17.000Z,302.4
2022-08-23T17:06:44.000Z,302.27
2022-08-23T17:08:51.000Z,302.27
2022-08-23T17:11:42.000Z,302.09
2022-08-23T17:13:09.000Z,301.96
2022-08-23T17:15:15.000Z,301.96
2022-08-23T17:16:44.000Z,301.9
2022-08-23T17:18:51.000Z,301.71
2022-08-23T17:20:18.000Z,301.71
2022-08-23T17:22:24.000Z,301.52
2022-08-23T17:23:51.000Z,301.59
2022-08-23T17:25:57.000Z,301.46
2022-08-23T17:27:24.000Z,301.4
2022-08-23T17:29:30.000Z,301.21
2022-08-23T17:31:02.000Z,301.21
2022-08-23T17:33:08.000Z,301.15
2022-08-23T17:34:34.000Z,301.21
2022-08-23T17:36:40.000Z,301.21
2022-08-23T17:38:12.000Z,301.09
2022-08-23T17:40:18.000Z,300.71
2022-08-23T17:41:45.000Z,300.52
2022-08-23T17:43:52.000Z,300.21
2022-08-23T17:45:18.000Z,299.96
2022-08-23T17:47:25.000Z,299.77
2022-08-23T17:50:16.000Z,299.4
2022-08-23T17:51:42.000Z,299.4
2022-08-23T17:53:49.000Z,299.34
2022-08-23T17:55:15.000Z,299.21
2022-08-23T17:57:23.000Z,299.09
2022-08-23T17:58:49.000Z,299.02
2022-08-23T18:00:55.000Z,298.77
2022-08-23T18:02:22.000Z,298.65
2022-08-23T18:04:28.000Z,298.52
2022-08-23T18:05:55.000Z,298.52
2022-08-23T18:08:01.000Z,298.4
2022-08-23T18:09:27.000Z,298.27
2022-08-23T18:11:34.000Z,298.09
2022-08-23T18:13:00.000Z,297.9
2022-08-23T18:15:06.000Z,297.84
2022-08-23T18:16:33.000Z,297.77
2022-08-23T18:18:40.000Z,297.77
2022-08-23T18:20:06.000Z,297.59
2022-08-23T18:22:13.000Z,297.59
2022-08-23T18:23:39.000Z,297.46
2022-08-23T18:25:45.000Z,297.27
2022-08-23T18:28:36.000Z,297.21
2022-08-23T18:30:03.000Z,297.02
2022-08-23T18:32:09.000Z,296.77
2022-08-23T18:33:35.000Z,296.71
2022-08-23T18:35:51.000Z,296.59
2022-08-23T18:37:17.000Z,296.46
2022-08-23T18:39:24.000Z,296.59
2022-08-23T18:40:56.000Z,296.52
2022-08-23T18:43:02.000Z,296.52
2022-08-23T18:44:29.000Z,296.4
2022-08-23T18:46:35.000Z,296.21
2022-08-23T18:48:02.000Z,296.21
2022-08-23T18:50:08.000Z,296.02
2022-08-23T18:51:34.000Z,295.96
2022-08-23T18:53:40.000Z,295.71
2022-08-23T18:55:07.000Z,295.65
2022-08-23T18:57:13.000Z,295.46
2022-08-23T18:58:40.000Z,295.4
2022-08-23T19:00:46.000Z,295.15
2022-08-23T19:02:15.000Z,295.15
2022-08-23T19:04:21.000Z,295.15
2022-08-23T19:07:12.000Z,294.96
2022-08-23T19:08:39.000Z,295.02
2022-08-23T19:10:45.000Z,294.71
2022-08-23T19:12:11.000Z,294.59
2022-08-23T19:14:18.000Z,294.59
2022-08-23T19:15:44.000Z,294.52
2022-08-23T19:17:50.000Z,294.4
2022-08-23T19:19:17.000Z,294.4
2022-08-23T19:21:23.000Z,294.27
2022-08-23T19:22:50.000Z,294.15
2022-08-23T19:24:56.000Z,294.02
2022-08-23T19:26:22.000Z,293.96
2022-08-23T19:28:29.000Z,293.9
2022-08-23T19:29:55.000Z,293.77
2022-08-23T19:32:02.000Z,293.71
2022-08-23T19:33:29.000Z,293.59
2022-08-23T19:35:36.000Z,293.46
2022-08-23T19:37:03.000Z,293.34
2022-08-23T19:39:14.000Z,293.27
2022-08-23T19:40:41.000Z,293.34
2022-08-23T19:42:47.000Z,293.21
2022-08-23T19:45:38.000Z,293.02
2022-08-23T19:47:05.000Z,293.02
2022-08-23T19:49:17.000Z,292.9
2022-08-23T19:50:44.000Z,292.96
2022-08-23T19:52:50.000Z,292.77
2022-08-23T19:54:17.000Z,292.9
2022-08-23T19:56:23.000Z,292.96
2022-08-23T19:57:51.000Z,292.84
2022-08-23T19:59:57.000Z,292.84
2022-08-23T20:01:24.000Z,292.71
2022-08-23T20:03:30.000Z,292.84
2022-08-23T20:04:57.000Z,292.65
2022-08-23T20:07:03.000Z,292.59
2022-08-23T20:08:29.000Z,292.46
2022-08-23T20:10:35.000Z,292.21
2022-08-23T20:12:02.000Z,292.21
2022-08-23T20:14:08.000Z,292.15
2022-08-23T20:15:35.000Z,292.09
2022-08-23T20:17:41.000Z,292.02
2022-08-23T20:19:08.000Z,291.96
2022-08-23T20:21:14.000Z,291.84
2022-08-23T20:24:12.000Z,291.96
2022-08-23T20:25:39.000Z,291.9
2022-08-23T20:27:45.000Z,291.96
2022-08-23T20:29:11.000Z,291.84
2022-08-23T20:31:17.000Z,291.71
2022-08-23T20:32:44.000Z,291.65
2022-08-23T20:34:50.000Z,291.65
2022-08-23T20:36:17.000Z,291.59
2022-08-23T20:38:23.000Z,291.46
2022-08-23T20:39:58.000Z,291.34
2022-08-23T20:42:04.000Z,291.15
2022-08-23T20:43:32.000Z,291.09
2022-08-23T20:45:38.000Z,290.96
2022-08-23T20:47:07.000Z,290.96
2022-08-23T20:49:13.000Z,290.84
2022-08-23T20:50:40.000Z,290.84
2022-08-23T20:52:46.000Z,290.77
2022-08-23T20:54:13.000Z,290.71
2022-08-23T20:56:19.000Z,290.65
2022-08-23T20:57:45.000Z,290.65
2022-08-23T20:59:52.000Z,290.59
2022-08-23T21:02:43.000Z,290.52
2022-08-23T21:04:09.000Z,290.59
2022-08-23T21:06:15.000Z,290.46
2022-08-23T21:07:45.000Z,290.46
2022-08-23T21:09:51.000Z,290.4
2022-08-23T21:11:18.000Z,290.34
2022-08-23T21:13:24.000Z,290.27
2022-08-23T21:14:50.000Z,290.21
2022-08-23T21:16:57.000Z,290.15
2022-08-23T21:18:23.000Z,290.15
2022-08-23T21:20:29.000Z,290.15
2022-08-23T21:21:56.000Z,290.21
2022-08-23T21:24:02.000Z,290.09
2022-08-23T21:25:28.000Z,290.02
2022-08-23T21:27:34.000Z,289.96
2022-08-23T21:29:01.000Z,290.09
2022-08-23T21:31:07.000Z,290.15
2022-08-23T21:32:34.000Z,290.27
2022-08-23T21:34:40.000Z,290.27
2022-08-23T21:36:06.000Z,290.21
2022-08-23T21:38:13.000Z,290.21
2022-08-23T21:41:04.000Z,290.15
2022-08-23T21:42:31.000Z,290.27
2022-08-23T21:44:37.000Z,290.27
2022-08-23T21:46:03.000Z,290.15
2022-08-23T21:48:09.000Z,290.02
2022-08-23T21:49:36.000Z,289.96
2022-08-23T21:51:42.000Z,290.02
2022-08-23T21:53:09.000Z,289.9
2022-08-23T21:55:15.000Z,289.84
2022-08-23T21:56:41.000Z,289.84
2022-08-23T21:58:47.000Z,289.84
2022-08-23T22:00:15.000Z,289.77
2022-08-23T22:02:21.000Z,289.71
2022-08-23T22:03:47.000Z,289.71
2022-08-23T22:06:00.000Z,289.77
2022-08-23T22:07:26.000Z,289.77
2022-08-23T22:09:32.000Z,289.59
2022-08-23T22:10:59.000Z,289.52
2022-08-23T22:13:05.000Z,289.52
2022-08-23T22:14:32.000Z,289.52
2022-08-23T22:16:38.000Z,289.59
2022-08-23T22:19:29.000Z,289.4
2022-08-23T22:20:55.000Z,289.34
2022-08-23T22:23:01.000Z,289.27
2022-08-23T22:24:28.000Z,289.4
2022-08-23T22:26:34.000Z,289.27
2022-08-23T22:28:01.000Z,289.15
2022-08-23T22:30:07.000Z,289.09
2022-08-23T22:31:33.000Z,289.21
2022-08-23T22:33:40.000Z,289.09
2022-08-23T22:35:06.000Z,289.09
2022-08-23T22:37:12.000Z,289.15
2022-08-23T22:38:39.000Z,289.15
2022-08-23T22:40:45.000Z,289.09
2022-08-23T22:42:11.000Z,288.96
2022-08-23T22:44:18.000Z,289.02
2022-08-23T22:45:44.000Z,289.02
2022-08-23T22:47:50.000Z,288.9
2022-08-23T22:49:17.000Z,288.9
2022-08-23T22:51:23.000Z,288.77
2022-08-23T22:52:50.000Z,288.77
2022-08-23T22:54:56.000Z,288.84
2022-08-23T22:57:47.000Z,288.77
2022-08-23T22:59:13.000Z,288.84
2022-08-23T23:01:20.000Z,288.9
2022-08-23T23:02:47.000Z,288.84
2022-08-23T23:04:54.000Z,288.71